sensor_id;sensor_type;location;lat;lon;timestamp;pressure;altitude;pressure_sealevel;temperature;humidity
50684;BME280;36654;45.042;38.994;2024-01-15T00:00:20;100837.28;;;1.91;99.95
50684;BME280;36654;45.042;38.994;2024-01-15T00:02:47;100836.53;;;1.93;100.00
50684;BME280;36654;45.042;38.994;2024-01-15T00:05:12;100834.75;;;1.92;99.79
50684;BME280;36654;45.042;38.994;2024-01-15T00:07:38;100844.75;;;2.01;99.95
50684;BME280;36654;45.042;38.994;2024-01-15T00:10:04;100834.50;;;2.06;99.86
50684;BME280;36654;45.042;38.994;2024-01-15T00:12:30;100826.75;;;2.07;99.91
50684;BME280;36654;45.042;38.994;2024-01-15T00:14:57;100763.44;;;1.77;99.54
50684;BME280;36654;45.042;38.994;2024-01-15T00:17:22;100801.94;;;1.99;99.63
50684;BME280;36654;45.042;38.994;2024-01-15T00:19:48;100817.09;;;2.06;99.36
50684;BME280;36654;45.042;38.994;2024-01-15T00:22:13;100818.91;;;2.07;99.30
50684;BME280;36654;45.042;38.994;2024-01-15T00:24:39;100822.53;;;2.11;99.20
50684;BME280;36654;45.042;38.994;2024-01-15T00:27:23;100822.41;;;2.08;99.00
50684;BME280;36654;45.042;38.994;2024-01-15T00:29:49;100825.16;;;2.11;98.81
50684;BME280;36654;45.042;38.994;2024-01-15T00:32:19;100818.16;;;2.10;98.65
50684;BME280;36654;45.042;38.994;2024-01-15T00:34:45;100773.22;;;1.81;98.20
50684;BME280;36654;45.042;38.994;2024-01-15T00:37:11;100820.59;;;2.07;97.53
50684;BME280;36654;45.042;38.994;2024-01-15T00:39:37;100820.06;;;2.14;96.99
50684;BME280;36654;45.042;38.994;2024-01-15T00:42:02;100818.28;;;2.13;96.25
50684;BME280;36654;45.042;38.994;2024-01-15T00:44:28;100824.25;;;2.10;95.98
50684;BME280;36654;45.042;38.994;2024-01-15T00:46:54;100812.06;;;2.11;95.68
50684;BME280;36654;45.042;38.994;2024-01-15T00:49:19;100787.66;;;2.10;95.75
50684;BME280;36654;45.042;38.994;2024-01-15T00:51:45;100797.50;;;2.16;95.86
50684;BME280;36654;45.042;38.994;2024-01-15T00:54:11;100786.88;;;2.13;95.95
50684;BME280;36654;45.042;38.994;2024-01-15T00:59:21;100779.94;;;2.13;96.74
50684;BME280;36654;45.042;38.994;2024-01-15T01:01:47;100787.03;;;2.16;96.75
50684;BME280;36654;45.042;38.994;2024-01-15T01:04:12;100780.03;;;2.15;97.04
50684;BME280;36654;45.042;38.994;2024-01-15T01:06:38;100793.44;;;2.23;96.96
50684;BME280;36654;45.042;38.994;2024-01-15T01:09:04;100797.06;;;2.26;97.31
50684;BME280;36654;45.042;38.994;2024-01-15T01:11:30;100819.13;;;2.31;97.42
50684;BME280;36654;45.042;38.994;2024-01-15T01:13:56;100806.25;;;2.36;97.43
50684;BME280;36654;45.042;38.994;2024-01-15T01:16:22;100802.03;;;2.40;97.38
50684;BME280;36654;45.042;38.994;2024-01-15T01:19:06;100797.97;;;2.46;97.36
50684;BME280;36654;45.042;38.994;2024-01-15T01:21:33;100800.53;;;2.45;97.27
50684;BME280;36654;45.042;38.994;2024-01-15T01:23:59;100787.59;;;2.48;97.32
50684;BME280;36654;45.042;38.994;2024-01-15T01:26:24;100766.91;;;2.54;97.30
50684;BME280;36654;45.042;38.994;2024-01-15T01:28:50;100731.59;;;2.44;97.34
50684;BME280;36654;45.042;38.994;2024-01-15T01:31:15;100755.00;;;2.61;97.20
50684;BME280;36654;45.042;38.994;2024-01-15T01:33:42;100725.94;;;2.54;97.18
50684;BME280;36654;45.042;38.994;2024-01-15T01:36:10;100723.66;;;2.62;97.15
50684;BME280;36654;45.042;38.994;2024-01-15T01:38:37;100724.59;;;2.64;97.15
50684;BME280;36654;45.042;38.994;2024-01-15T01:41:04;100719.38;;;2.64;96.98
50684;BME280;36654;45.042;38.994;2024-01-15T01:43:29;100722.25;;;2.70;96.59
50684;BME280;36654;45.042;38.994;2024-01-15T01:45:56;100713.66;;;2.73;96.37
50684;BME280;36654;45.042;38.994;2024-01-15T01:48:24;100697.06;;;2.72;95.86
50684;BME280;36654;45.042;38.994;2024-01-15T01:50:52;100704.06;;;2.73;95.25
50684;BME280;36654;45.042;38.994;2024-01-15T01:53:18;100666.78;;;2.58;94.84
50684;BME280;36654;45.042;38.994;2024-01-15T01:55:44;100693.03;;;2.80;94.61
50684;BME280;36654;45.042;38.994;2024-01-15T01:58:10;100672.88;;;2.79;94.26
50684;BME280;36654;45.042;38.994;2024-01-15T02:00:36;100686.81;;;2.78;93.99
50684;BME280;36654;45.042;38.994;2024-01-15T02:03:02;100678.00;;;2.76;93.85
50684;BME280;36654;45.042;38.994;2024-01-15T02:05:28;100638.56;;;2.51;93.87
50684;BME280;36654;45.042;38.994;2024-01-15T02:07:55;100678.13;;;2.79;93.86
50684;BME280;36654;45.042;38.994;2024-01-15T02:10:21;100698.50;;;2.87;93.88
50684;BME280;36654;45.042;38.994;2024-01-15T02:12:47;100703.72;;;2.87;93.82
50684;BME280;36654;45.042;38.994;2024-01-15T02:15:14;100696.81;;;2.87;93.90
50684;BME280;36654;45.042;38.994;2024-01-15T02:18:03;100681.91;;;2.86;93.52
50684;BME280;36654;45.042;38.994;2024-01-15T02:20:29;100683.34;;;2.79;93.64
50684;BME280;36654;45.042;38.994;2024-01-15T02:25:30;100726.94;;;2.77;93.56
50684;BME280;36654;45.042;38.994;2024-01-15T02:27:56;100727.63;;;2.73;93.46
50684;BME280;36654;45.042;38.994;2024-01-15T02:33:07;100722.25;;;2.70;93.42
50684;BME280;36654;45.042;38.994;2024-01-15T02:35:34;100726.84;;;2.76;93.47
50684;BME280;36654;45.042;38.994;2024-01-15T02:38:03;100727.75;;;2.76;93.46
50684;BME280;36654;45.042;38.994;2024-01-15T02:40:30;100667.66;;;2.37;93.63
50684;BME280;36654;45.042;38.994;2024-01-15T02:42:56;100747.88;;;2.77;93.65
50684;BME280;36654;45.042;38.994;2024-01-15T02:45:22;100742.66;;;2.77;93.66
50684;BME280;36654;45.042;38.994;2024-01-15T02:47:48;100724.75;;;2.67;93.66
50684;BME280;36654;45.042;38.994;2024-01-15T02:50:14;100746.91;;;2.75;93.44
50684;BME280;36654;45.042;38.994;2024-01-15T02:52:41;100712.91;;;2.56;93.48
50684;BME280;36654;45.042;38.994;2024-01-15T02:55:07;100760.13;;;2.78;93.51
50684;BME280;36654;45.042;38.994;2024-01-15T02:57:33;100762.81;;;2.80;93.78
50684;BME280;36654;45.042;38.994;2024-01-15T02:59:59;100769.72;;;2.78;93.77
50684;BME280;36654;45.042;38.994;2024-01-15T03:02:24;100771.50;;;2.79;93.86
50684;BME280;36654;45.042;38.994;2024-01-15T03:04:50;100761.66;;;2.73;93.76
50684;BME280;36654;45.042;38.994;2024-01-15T03:07:16;100725.75;;;2.50;93.70
50684;BME280;36654;45.042;38.994;2024-01-15T03:09:41;100749.25;;;2.69;93.98
50684;BME280;36654;45.042;38.994;2024-01-15T03:12:08;100753.13;;;2.77;93.67
50684;BME280;36654;45.042;38.994;2024-01-15T03:14:33;100754.91;;;2.78;93.50
50684;BME280;36654;45.042;38.994;2024-01-15T03:17:00;100754.00;;;2.78;93.51
50684;BME280;36654;45.042;38.994;2024-01-15T03:19:26;100761.66;;;2.73;93.04
50684;BME280;36654;45.042;38.994;2024-01-15T03:21:52;100781.19;;;2.81;92.46
50684;BME280;36654;45.042;38.994;2024-01-15T03:24:17;100769.84;;;2.81;92.27
50684;BME280;36654;45.042;38.994;2024-01-15T03:26:43;100763.06;;;2.86;91.83
50684;BME280;36654;45.042;38.994;2024-01-15T03:29:28;100766.72;;;2.90;91.60
50684;BME280;36654;45.042;38.994;2024-01-15T03:32:12;100759.13;;;2.96;91.18
50684;BME280;36654;45.042;38.994;2024-01-15T03:34:38;100742.75;;;2.80;91.08
50684;BME280;36654;45.042;38.994;2024-01-15T03:37:03;100753.56;;;2.88;90.90
50684;BME280;36654;45.042;38.994;2024-01-15T03:39:29;100759.25;;;2.99;91.04
50684;BME280;36654;45.042;38.994;2024-01-15T03:42:13;100761.06;;;3.00;91.01
50684;BME280;36654;45.042;38.994;2024-01-15T03:44:39;100754.97;;;3.01;90.90
50684;BME280;36654;45.042;38.994;2024-01-15T03:47:05;100733.19;;;2.81;91.01
50684;BME280;36654;45.042;38.994;2024-01-15T03:49:31;100768.00;;;2.99;91.34
50684;BME280;36654;45.042;38.994;2024-01-15T03:51:56;100776.75;;;3.00;91.39
50684;BME280;36654;45.042;38.994;2024-01-15T03:54:22;100707.97;;;2.62;91.69
50684;BME280;36654;45.042;38.994;2024-01-15T03:56:49;100764.88;;;2.87;91.77
50684;BME280;36654;45.042;38.994;2024-01-15T03:59:14;100774.06;;;2.98;92.02
50684;BME280;36654;45.042;38.994;2024-01-15T04:01:40;100760.78;;;2.94;92.22
50684;BME280;36654;45.042;38.994;2024-01-15T04:04:06;100796.88;;;3.01;92.46
50684;BME280;36654;45.042;38.994;2024-01-15T04:09:15;100794.78;;;2.92;93.05
50684;BME280;36654;45.042;38.994;2024-01-15T04:11:41;100752.84;;;2.71;92.92
50684;BME280;36654;45.042;38.994;2024-01-15T04:14:25;100804.59;;;2.98;93.18
50684;BME280;36654;45.042;38.994;2024-01-15T04:16:51;100801.16;;;2.99;93.55
50684;BME280;36654;45.042;38.994;2024-01-15T04:19:16;100808.97;;;2.97;93.43
50684;BME280;36654;45.042;38.994;2024-01-15T04:21:42;100799.38;;;2.98;93.82
50684;BME280;36654;45.042;38.994;2024-01-15T04:24:08;100795.78;;;2.96;93.73
50684;BME280;36654;45.042;38.994;2024-01-15T04:26:34;100788.63;;;2.92;93.85
50684;BME280;36654;45.042;38.994;2024-01-15T04:28:59;100797.44;;;2.94;93.94
50684;BME280;36654;45.042;38.994;2024-01-15T04:31:25;100779.53;;;2.84;93.74
50684;BME280;36654;45.042;38.994;2024-01-15T04:33:52;100793.84;;;2.92;94.27
50684;BME280;36654;45.042;38.994;2024-01-15T04:36:18;100792.19;;;2.94;94.09
50684;BME280;36654;45.042;38.994;2024-01-15T04:38:43;100801.03;;;2.96;94.40
50684;BME280;36654;45.042;38.994;2024-01-15T04:41:13;100776.16;;;2.86;94.41
50684;BME280;36654;45.042;38.994;2024-01-15T04:43:39;100788.63;;;2.92;94.50
50684;BME280;36654;45.042;38.994;2024-01-15T04:46:07;100785.19;;;2.93;94.42
50684;BME280;36654;45.042;38.994;2024-01-15T04:48:33;100789.38;;;2.89;94.58
50684;BME280;36654;45.042;38.994;2024-01-15T04:50:59;100796.78;;;2.99;94.52
50684;BME280;36654;45.042;38.994;2024-01-15T04:53:25;100793.16;;;2.96;94.44
50684;BME280;36654;45.042;38.994;2024-01-15T04:56:10;100802.19;;;3.02;94.39
50684;BME280;36654;45.042;38.994;2024-01-15T04:58:35;100785.44;;;2.99;94.07
50684;BME280;36654;45.042;38.994;2024-01-15T05:01:20;100802.50;;;3.10;93.64
50684;BME280;36654;45.042;38.994;2024-01-15T05:06:29;100805.66;;;3.22;93.05
50684;BME280;36654;45.042;38.994;2024-01-15T05:08:55;100792.59;;;3.24;92.54
50684;BME280;36654;45.042;38.994;2024-01-15T05:11:20;100804.63;;;3.40;91.83
50684;BME280;36654;45.042;38.994;2024-01-15T05:13:46;100801.34;;;3.45;91.38
50684;BME280;36654;45.042;38.994;2024-01-15T05:16:12;100819.91;;;3.50;90.62
50684;BME280;36654;45.042;38.994;2024-01-15T05:18:37;100812.25;;;3.56;90.36
50684;BME280;36654;45.042;38.994;2024-01-15T05:21:03;100773.75;;;3.33;89.94
50684;BME280;36654;45.042;38.994;2024-01-15T05:29:00;100829.09;;;3.84;88.08
50684;BME280;36654;45.042;38.994;2024-01-15T05:31:26;100825.47;;;3.80;87.93
50684;BME280;36654;45.042;38.994;2024-01-15T05:33:51;100837.13;;;3.87;87.79
50684;BME280;36654;45.042;38.994;2024-01-15T05:36:17;100858.25;;;3.92;87.35
50684;BME280;36654;45.042;38.994;2024-01-15T05:38:43;100841.50;;;3.88;87.02
50684;BME280;36654;45.042;38.994;2024-01-15T05:41:09;100844.84;;;3.84;86.78
50684;BME280;36654;45.042;38.994;2024-01-15T05:43:35;100712.38;;;3.05;86.38
50684;BME280;36654;45.042;38.994;2024-01-15T05:46:01;100871.56;;;3.96;86.48
50684;BME280;36654;45.042;38.994;2024-01-15T05:48:45;100874.25;;;3.98;86.38
50684;BME280;36654;45.042;38.994;2024-01-15T05:51:12;100880.28;;;3.95;86.34
50684;BME280;36654;45.042;38.994;2024-01-15T05:53:38;100875.03;;;3.95;86.09
50684;BME280;36654;45.042;38.994;2024-01-15T05:56:05;100891.88;;;4.02;86.14
50684;BME280;36654;45.042;38.994;2024-01-15T05:58:31;100874.97;;;3.94;86.11
50684;BME280;36654;45.042;38.994;2024-01-15T06:00:57;100897.91;;;3.99;85.90
50684;BME280;36654;45.042;38.994;2024-01-15T06:03:42;100915.56;;;4.03;86.07
50684;BME280;36654;45.042;38.994;2024-01-15T06:06:08;100902.47;;;4.03;85.85
50684;BME280;36654;45.042;38.994;2024-01-15T06:08:34;100923.38;;;4.02;85.75
50684;BME280;36654;45.042;38.994;2024-01-15T06:11:00;100897.69;;;3.93;85.82
50684;BME280;36654;45.042;38.994;2024-01-15T06:16:28;100948.97;;;4.07;85.74
50684;BME280;36654;45.042;38.994;2024-01-15T06:18:54;100906.13;;;3.86;85.75
50684;BME280;36654;45.042;38.994;2024-01-15T06:21:20;100915.16;;;3.93;85.87
50684;BME280;36654;45.042;38.994;2024-01-15T06:23:46;100915.84;;;3.88;86.03
50684;BME280;36654;45.042;38.994;2024-01-15T06:26:12;100934.63;;;3.99;86.34
50684;BME280;36654;45.042;38.994;2024-01-15T06:28:38;100927.50;;;3.95;86.85
50684;BME280;36654;45.042;38.994;2024-01-15T06:31:06;100882.34;;;3.60;87.04
50684;BME280;36654;45.042;38.994;2024-01-15T06:33:50;100925.53;;;3.89;87.69
50684;BME280;36654;45.042;38.994;2024-01-15T06:36:16;100920.13;;;3.86;88.10
50684;BME280;36654;45.042;38.994;2024-01-15T06:38:43;100903.13;;;3.77;88.26
50684;BME280;36654;45.042;38.994;2024-01-15T06:41:09;100877.00;;;3.57;88.61
50684;BME280;36654;45.042;38.994;2024-01-15T06:43:35;100934.94;;;3.84;88.99
50684;BME280;36654;45.042;38.994;2024-01-15T06:46:01;100905.03;;;3.81;89.15
50684;BME280;36654;45.042;38.994;2024-01-15T06:48:26;100915.41;;;3.78;89.46
50684;BME280;36654;45.042;38.994;2024-01-15T06:50:52;100934.97;;;3.86;89.44
50684;BME280;36654;45.042;38.994;2024-01-15T06:53:19;100928.16;;;3.89;89.67
50684;BME280;36654;45.042;38.994;2024-01-15T06:55:45;100923.13;;;3.96;89.77
50684;BME280;36654;45.042;38.994;2024-01-15T06:58:10;100918.00;;;3.99;89.47
50684;BME280;36654;45.042;38.994;2024-01-15T07:00:36;100881.22;;;3.75;89.27
50684;BME280;36654;45.042;38.994;2024-01-15T07:03:03;100920.59;;;3.97;89.23
50684;BME280;36654;45.042;38.994;2024-01-15T07:05:29;100930.31;;;4.00;89.05
50684;BME280;36654;45.042;38.994;2024-01-15T07:07:56;100903.03;;;3.96;89.17
50684;BME280;36654;45.042;38.994;2024-01-15T07:10:21;100936.44;;;4.00;88.97
50684;BME280;36654;45.042;38.994;2024-01-15T07:12:47;100915.34;;;3.97;88.75
50684;BME280;36654;45.042;38.994;2024-01-15T07:15:13;100928.00;;;4.07;88.77
50684;BME280;36654;45.042;38.994;2024-01-15T07:17:38;100946.34;;;4.07;88.67
50684;BME280;36654;45.042;38.994;2024-01-15T07:20:08;100956.91;;;4.09;88.59
50684;BME280;36654;45.042;38.994;2024-01-15T07:22:35;100928.56;;;4.00;88.67
50684;BME280;36654;45.042;38.994;2024-01-15T07:25:00;100948.09;;;3.86;88.68
50684;BME280;36654;45.042;38.994;2024-01-15T07:27:26;100953.22;;;3.83;88.89
50684;BME280;36654;45.042;38.994;2024-01-15T07:29:52;100958.34;;;3.80;89.36
50684;BME280;36654;45.042;38.994;2024-01-15T07:32:17;100952.81;;;3.74;89.69
50684;BME280;36654;45.042;38.994;2024-01-15T07:34:46;100948.97;;;3.65;89.92
50684;BME280;36654;45.042;38.994;2024-01-15T07:37:18;100942.31;;;3.74;90.52
50684;BME280;36654;45.042;38.994;2024-01-15T07:39:43;100943.53;;;3.82;90.92
50684;BME280;36654;45.042;38.994;2024-01-15T07:42:09;100943.88;;;3.89;91.14
50684;BME280;36654;45.042;38.994;2024-01-15T07:44:35;100935.38;;;3.95;91.30
50684;BME280;36654;45.042;38.994;2024-01-15T07:47:01;100921.41;;;3.96;91.10
50684;BME280;36654;45.042;38.994;2024-01-15T07:49:27;100907.78;;;4.05;91.18
50684;BME280;36654;45.042;38.994;2024-01-15T07:54:38;100920.25;;;4.10;91.01
50684;BME280;36654;45.042;38.994;2024-01-15T07:57:07;100925.00;;;4.21;90.87
50684;BME280;36654;45.042;38.994;2024-01-15T07:59:32;100940.00;;;4.23;90.72
50684;BME280;36654;45.042;38.994;2024-01-15T08:01:59;100941.13;;;4.30;90.71
50684;BME280;36654;45.042;38.994;2024-01-15T08:04:24;100890.00;;;3.98;90.60
50684;BME280;36654;45.042;38.994;2024-01-15T08:06:50;100934.56;;;4.41;90.52
50684;BME280;36654;45.042;38.994;2024-01-15T08:09:17;100932.22;;;4.49;90.17
50684;BME280;36654;45.042;38.994;2024-01-15T08:11:44;100953.38;;;4.52;89.92
50684;BME280;36654;45.042;38.994;2024-01-15T08:14:10;100920.66;;;4.44;89.78
50684;BME280;36654;45.042;38.994;2024-01-15T08:19:39;100967.50;;;4.56;87.98
50684;BME280;36654;45.042;38.994;2024-01-15T08:22:09;100961.56;;;4.60;87.50
50684;BME280;36654;45.042;38.994;2024-01-15T08:24:35;100965.97;;;4.61;87.15
50684;BME280;36654;45.042;38.994;2024-01-15T08:27:01;100970.03;;;4.52;87.08
50684;BME280;36654;45.042;38.994;2024-01-15T08:29:47;100968.38;;;4.54;87.51
50684;BME280;36654;45.042;38.994;2024-01-15T08:32:12;100961.06;;;4.47;87.78
50684;BME280;36654;45.042;38.994;2024-01-15T08:34:41;100985.22;;;4.39;88.53
50684;BME280;36654;45.042;38.994;2024-01-15T08:37:07;100960.59;;;4.35;89.38
50684;BME280;36654;45.042;38.994;2024-01-15T08:39:33;100927.88;;;4.04;89.94
50684;BME280;36654;45.042;38.994;2024-01-15T08:41:58;100961.75;;;4.21;90.51
50684;BME280;36654;45.042;38.994;2024-01-15T08:44:24;100948.94;;;4.28;91.06
50684;BME280;36654;45.042;38.994;2024-01-15T08:46:50;100946.28;;;4.27;91.87
50684;BME280;36654;45.042;38.994;2024-01-15T08:49:17;100961.28;;;4.31;92.10
50684;BME280;36654;45.042;38.994;2024-01-15T08:51:43;100927.94;;;4.28;92.77
50684;BME280;36654;45.042;38.994;2024-01-15T08:54:09;100939.69;;;4.38;93.00
50684;BME280;36654;45.042;38.994;2024-01-15T08:56:35;100924.22;;;4.44;93.13
50684;BME280;36654;45.042;38.994;2024-01-15T08:59:01;100928.84;;;4.51;93.36
50684;BME280;36654;45.042;38.994;2024-01-15T09:01:45;100908.56;;;4.47;93.39
50684;BME280;36654;45.042;38.994;2024-01-15T09:04:29;100914.75;;;4.72;93.54
50684;BME280;36654;45.042;38.994;2024-01-15T09:06:54;100917.78;;;4.83;93.03
50684;BME280;36654;45.042;38.994;2024-01-15T09:09:20;100926.78;;;4.89;92.56
50684;BME280;36654;45.042;38.994;2024-01-15T09:11:46;100899.88;;;4.96;92.22
50684;BME280;36654;45.042;38.994;2024-01-15T09:14:12;100926.94;;;5.18;91.67
50684;BME280;36654;45.042;38.994;2024-01-15T09:16:38;100919.66;;;5.35;91.15
50684;BME280;36654;45.042;38.994;2024-01-15T09:19:04;100897.06;;;5.40;90.56
50684;BME280;36654;45.042;38.994;2024-01-15T09:21:29;100899.94;;;5.48;89.81
50684;BME280;36654;45.042;38.994;2024-01-15T09:26:39;100898.66;;;5.88;89.28
50684;BME280;36654;45.042;38.994;2024-01-15T09:29:04;100889.28;;;5.96;89.16
50684;BME280;36654;45.042;38.994;2024-01-15T09:31:30;100894.56;;;5.96;87.97
50684;BME280;36654;45.042;38.994;2024-01-15T09:33:56;100886.91;;;6.03;87.85
50684;BME280;36654;45.042;38.994;2024-01-15T09:36:23;100908.50;;;6.20;87.09
50684;BME280;36654;45.042;38.994;2024-01-15T09:41:43;100879.63;;;6.23;85.38
50684;BME280;36654;45.042;38.994;2024-01-15T09:44:10;100881.31;;;6.21;84.50
50684;BME280;36654;45.042;38.994;2024-01-15T09:46:36;100865.59;;;6.23;84.05
50684;BME280;36654;45.042;38.994;2024-01-15T09:49:03;100872.69;;;6.25;83.90
50684;BME280;36654;45.042;38.994;2024-01-15T09:51:33;100853.28;;;6.22;83.63
50684;BME280;36654;45.042;38.994;2024-01-15T09:54:00;100876.66;;;6.40;83.28
50684;BME280;36654;45.042;38.994;2024-01-15T09:56:26;100884.69;;;6.44;82.68
50684;BME280;36654;45.042;38.994;2024-01-15T09:58:52;100865.63;;;6.53;82.25
50684;BME280;36654;45.042;38.994;2024-01-15T10:01:20;100828.94;;;6.59;79.78
50684;BME280;36654;45.042;38.994;2024-01-15T10:06:30;100872.56;;;6.80;74.40
50684;BME280;36654;45.042;38.994;2024-01-15T10:08:57;100826.28;;;6.89;72.56
50684;BME280;36654;45.042;38.994;2024-01-15T10:11:26;100866.09;;;7.00;71.38
50684;BME280;36654;45.042;38.994;2024-01-15T10:13:52;100835.69;;;7.13;70.70
50684;BME280;36654;45.042;38.994;2024-01-15T10:16:21;100859.59;;;7.21;69.30
50684;BME280;36654;45.042;38.994;2024-01-15T10:18:50;100809.13;;;7.05;68.67
50684;BME280;36654;45.042;38.994;2024-01-15T10:21:16;100818.00;;;7.09;69.10
50684;BME280;36654;45.042;38.994;2024-01-15T10:23:42;100842.28;;;7.29;69.65
50684;BME280;36654;45.042;38.994;2024-01-15T10:26:09;100857.28;;;7.33;68.43
50684;BME280;36654;45.042;38.994;2024-01-15T10:28:37;100824.97;;;7.40;68.19
50684;BME280;36654;45.042;38.994;2024-01-15T10:31:03;100832.13;;;7.46;66.95
50684;BME280;36654;45.042;38.994;2024-01-15T10:33:48;100844.75;;;7.57;66.88
50684;BME280;36654;45.042;38.994;2024-01-15T10:36:16;100800.16;;;7.32;66.23
50684;BME280;36654;45.042;38.994;2024-01-15T10:38:46;100842.97;;;7.56;66.11
50684;BME280;36654;45.042;38.994;2024-01-15T10:41:12;100812.94;;;7.51;65.55
50684;BME280;36654;45.042;38.994;2024-01-15T10:43:38;100848.47;;;7.66;64.75
50684;BME280;36654;45.042;38.994;2024-01-15T10:46:24;100831.50;;;7.56;63.98
50684;BME280;36654;45.042;38.994;2024-01-15T10:48:50;100824.38;;;7.52;64.56
50684;BME280;36654;45.042;38.994;2024-01-15T10:51:17;100847.94;;;7.44;64.39
50684;BME280;36654;45.042;38.994;2024-01-15T10:53:43;100857.69;;;7.48;65.18
50684;BME280;36654;45.042;38.994;2024-01-15T10:56:11;100833.00;;;7.45;64.73
50684;BME280;36654;45.042;38.994;2024-01-15T10:58:39;100845.28;;;7.44;65.34
50684;BME280;36654;45.042;38.994;2024-01-15T11:01:05;100835.25;;;7.31;64.94
50684;BME280;36654;45.042;38.994;2024-01-15T11:03:32;100849.72;;;7.45;64.82
50684;BME280;36654;45.042;38.994;2024-01-15T11:05:59;100847.13;;;7.48;64.31
50684;BME280;36654;45.042;38.994;2024-01-15T11:08:25;100858.63;;;7.50;63.72
50684;BME280;36654;45.042;38.994;2024-01-15T11:16:05;100839.47;;;7.57;63.30
50684;BME280;36654;45.042;38.994;2024-01-15T11:18:42;100795.19;;;7.44;62.97
50684;BME280;36654;45.042;38.994;2024-01-15T11:23:44;100872.81;;;7.55;62.90
50684;BME280;36654;45.042;38.994;2024-01-15T11:28:59;100861.97;;;7.43;62.60
50684;BME280;36654;45.042;38.994;2024-01-15T11:34:07;100889.22;;;7.44;62.41
50684;BME280;36654;45.042;38.994;2024-01-15T11:41:57;100877.09;;;7.50;62.65
50684;BME280;36654;45.042;38.994;2024-01-15T11:44:23;100873.69;;;7.54;62.37
50684;BME280;36654;45.042;38.994;2024-01-15T11:47:02;100867.56;;;7.55;62.23
50684;BME280;36654;45.042;38.994;2024-01-15T11:49:56;100877.09;;;7.50;62.56
50684;BME280;36654;45.042;38.994;2024-01-15T11:52:23;100865.72;;;7.51;61.43
50684;BME280;36654;45.042;38.994;2024-01-15T11:55:10;100857.94;;;7.57;61.99
50684;BME280;36654;45.042;38.994;2024-01-15T12:00:07;100860.06;;;7.72;61.14
50684;BME280;36654;45.042;38.994;2024-01-15T12:02:36;100833.81;;;7.78;61.11
50684;BME280;36654;45.042;38.994;2024-01-15T12:05:02;100863.75;;;7.79;61.49
50684;BME280;36654;45.042;38.994;2024-01-15T12:07:28;100833.91;;;7.82;59.68
50684;BME280;36654;45.042;38.994;2024-01-15T12:09:54;100793.53;;;7.49;59.68
50684;BME280;36654;45.042;38.994;2024-01-15T12:12:57;100846.34;;;7.87;59.15
50684;BME280;36654;45.042;38.994;2024-01-15T12:15:41;100856.22;;;7.96;58.82
50684;BME280;36654;45.042;38.994;2024-01-15T12:18:09;100859.03;;;8.04;58.05
50684;BME280;36654;45.042;38.994;2024-01-15T12:20:35;100852.88;;;8.03;57.68
50684;BME280;36654;45.042;38.994;2024-01-15T12:23:02;100861.97;;;8.16;57.52
50684;BME280;36654;45.042;38.994;2024-01-15T12:25:31;100831.72;;;8.02;57.62
50684;BME280;36654;45.042;38.994;2024-01-15T12:27:58;100840.06;;;8.20;56.69
50684;BME280;36654;45.042;38.994;2024-01-15T12:30:29;100847.13;;;8.21;55.57
50684;BME280;36654;45.042;38.994;2024-01-15T12:32:58;100865.47;;;8.15;54.72
50684;BME280;36654;45.042;38.994;2024-01-15T12:35:27;100795.78;;;7.69;54.78
50684;BME280;36654;45.042;38.994;2024-01-15T12:37:55;100861.91;;;8.13;54.84
50684;BME280;36654;45.042;38.994;2024-01-15T12:40:22;100838.78;;;8.03;54.61
50684;BME280;36654;45.042;38.994;2024-01-15T12:45:32;100876.53;;;7.98;55.30
50684;BME280;36654;45.042;38.994;2024-01-15T12:47:58;100902.22;;;8.06;54.75
50684;BME280;36654;45.042;38.994;2024-01-15T12:50:24;100882.03;;;8.08;54.53
50684;BME280;36654;45.042;38.994;2024-01-15T12:52:51;100869.53;;;7.99;54.25
50684;BME280;36654;45.042;38.994;2024-01-15T12:55:16;100851.81;;;7.95;53.88
50684;BME280;36654;45.042;38.994;2024-01-15T12:57:42;100886.31;;;8.03;53.77
50684;BME280;36654;45.042;38.994;2024-01-15T13:00:08;100875.69;;;7.99;53.81
50684;BME280;36654;45.042;38.994;2024-01-15T13:02:38;100886.19;;;7.96;55.21
50684;BME280;36654;45.042;38.994;2024-01-15T13:05:06;100852.63;;;7.92;54.40
50684;BME280;36654;45.042;38.994;2024-01-15T13:07:32;100875.63;;;7.96;54.77
50684;BME280;36654;45.042;38.994;2024-01-15T13:09:58;100881.72;;;7.95;54.64
50684;BME280;36654;45.042;38.994;2024-01-15T13:12:24;100838.56;;;7.93;54.18
50684;BME280;36654;45.042;38.994;2024-01-15T13:14:50;100825.72;;;7.71;54.68
50684;BME280;36654;45.042;38.994;2024-01-15T13:17:16;100811.44;;;7.63;55.54
50684;BME280;36654;45.042;38.994;2024-01-15T13:19:41;100846.91;;;7.74;55.86
50684;BME280;36654;45.042;38.994;2024-01-15T13:22:07;100868.22;;;7.83;55.68
50684;BME280;36654;45.042;38.994;2024-01-15T13:24:38;100881.59;;;7.89;56.38
50684;BME280;36654;45.042;38.994;2024-01-15T13:27:04;100879.72;;;7.85;56.12
50684;BME280;36654;45.042;38.994;2024-01-15T13:29:49;100895.50;;;7.82;56.49
50684;BME280;36654;45.042;38.994;2024-01-15T13:32:20;100897.91;;;7.73;57.31
50684;BME280;36654;45.042;38.994;2024-01-15T13:34:47;100919.94;;;7.75;56.75
50684;BME280;36654;45.042;38.994;2024-01-15T13:37:14;100911.97;;;7.72;56.75
50684;BME280;36654;45.042;38.994;2024-01-15T13:39:39;100902.91;;;7.62;57.35
50684;BME280;36654;45.042;38.994;2024-01-15T13:42:05;100863.84;;;7.47;57.05
50684;BME280;36654;45.042;38.994;2024-01-15T13:49:59;100910.50;;;7.50;57.79
50684;BME280;36654;45.042;38.994;2024-01-15T13:52:25;100838.09;;;7.05;57.72
50684;BME280;36654;45.042;38.994;2024-01-15T13:54:54;100925.19;;;7.40;58.07
50684;BME280;36654;45.042;38.994;2024-01-15T13:57:19;100914.56;;;7.37;58.49